createdAt,value
2016-03-21T00:00:19.176Z,1016.36
2016-03-21T00:01:19.241Z,1016.38
2016-03-21T00:02:19.259Z,1016.33
2016-03-21T00:03:19.262Z,1016.34
2016-03-21T00:04:38.500Z,1016.34
2016-03-21T00:05:25.517Z,1016.37
2016-03-21T00:06:19.269Z,1016.36
2016-03-21T00:07:19.336Z,1016.34
2016-03-21T00:08:19.322Z,1016.36
2016-03-21T00:09:19.325Z,1016.37
2016-03-21T00:10:19.344Z,1016.34
2016-03-21T00:11:19.362Z,1016.33
2016-03-21T00:12:38.568Z,1016.29
2016-03-21T00:13:19.618Z,1016.28
2016-03-21T00:14:19.401Z,1016.3
2016-03-21T00:15:19.466Z,1016.32
2016-03-21T00:16:25.704Z,1016.27
2016-03-21T00:17:32.190Z,1016.29
2016-03-21T00:18:19.724Z,1016.29
2016-03-21T00:19:19.540Z,1016.27
2016-03-21T00:20:19.512Z,1016.3
2016-03-21T00:21:24.624Z,1016.26
2016-03-21T00:22:24.642Z,1016.27
2016-03-21T00:23:30.973Z,1016.28
2016-03-21T00:24:24.678Z,1016.25
2016-03-21T00:25:24.743Z,1016.29
2016-03-21T00:26:26.120Z,1016.28
2016-03-21T00:27:24.718Z,1016.22
2016-03-21T00:28:24.751Z,1016.27
2016-03-21T00:29:24.989Z,1016.22
2016-03-21T00:30:24.803Z,1016.25
2016-03-21T00:31:24.791Z,1016.26
2016-03-21T00:32:24.794Z,1016.24
2016-03-21T00:33:24.828Z,1016.22
2016-03-21T00:34:25.080Z,1016.24
2016-03-21T00:35:25.708Z,1016.18
2016-03-21T00:36:24.866Z,1016.18
2016-03-21T00:37:24.885Z,1016.17
2016-03-21T00:38:24.903Z,1016.23
2016-03-21T00:39:25.359Z,1016.2
2016-03-21T00:40:25.159Z,1016.21
2016-03-21T00:41:25.005Z,1016.2
2016-03-21T00:42:24.961Z,1016.18
2016-03-21T00:43:25.588Z,1016.13
2016-03-21T00:44:37.763Z,1016.11
2016-03-21T00:45:25.032Z,1016.09
2016-03-21T00:46:50.709Z,1016.08
2016-03-21T00:47:34.959Z,1016.08
2016-03-21T00:48:34.946Z,1016.12
2016-03-21T00:49:35.574Z,1016.15
2016-03-21T00:50:34.998Z,1016.13
2016-03-21T00:51:35.220Z,1016.08
2016-03-21T00:52:35.018Z,1016.09
2016-03-21T00:53:35.053Z,1016.13
2016-03-21T00:54:47.777Z,1016.12
2016-03-21T00:55:35.059Z,1016.11
2016-03-21T00:56:35.155Z,1016.14
2016-03-21T00:57:35.111Z,1016.11
2016-03-21T00:58:35.160Z,1016.17
2016-03-21T00:59:44.851Z,1016.18
2016-03-21T01:00:44.837Z,1016.12
2016-03-21T01:01:46.280Z,1016.08
2016-03-21T01:02:44.889Z,1016.08
2016-03-21T01:03:44.877Z,1016.04
2016-03-21T01:04:44.911Z,1016.02
2016-03-21T01:05:45.164Z,1015.99
2016-03-21T01:06:44.978Z,1015.93
2016-03-21T01:07:57.703Z,1015.96
2016-03-21T01:08:45.219Z,1015.94
2016-03-21T01:09:45.002Z,1016.01
2016-03-21T01:10:49.977Z,1016
2016-03-21T01:11:49.729Z,1015.96
2016-03-21T01:12:51.357Z,1015.94
2016-03-21T01:13:49.766Z,1015.99
2016-03-21T01:14:53.018Z,1015.98
2016-03-21T01:15:51.240Z,1016
2016-03-21T01:16:49.790Z,1016
2016-03-21T01:17:49.855Z,1015.98
2016-03-21T01:18:49.841Z,1015.99
2016-03-21T01:19:50.079Z,1015.98
2016-03-21T01:20:50.082Z,1015.96
2016-03-21T01:21:50.007Z,1015.97
2016-03-21T01:22:49.866Z,1015.99
2016-03-21T01:23:49.931Z,1015.91
2016-03-21T01:24:49.886Z,1015.94
2016-03-21T01:25:49.905Z,1015.91
2016-03-21T01:26:49.939Z,1015.92
2016-03-21T01:27:50.020Z,1015.9
2016-03-21T01:29:02.697Z,1015.88
2016-03-21T01:29:49.978Z,1015.89
2016-03-21T01:30:49.996Z,1015.95
2016-03-21T01:31:50.031Z,1015.89
2016-03-21T01:32:50.065Z,1015.9
2016-03-21T01:33:50.051Z,1015.94
2016-03-21T01:34:50.070Z,1015.87
2016-03-21T01:35:50.104Z,1015.85
2016-03-21T01:36:50.122Z,1015.84
2016-03-21T01:37:50.172Z,1015.87
2016-03-21T01:39:02.911Z,1015.83
2016-03-21T01:39:50.145Z,1015.79
2016-03-21T01:40:50.164Z,1015.8
2016-03-21T01:41:59.794Z,1015.83
2016-03-21T01:43:00.047Z,1015.82
2016-03-21T01:43:59.847Z,1015.83
2016-03-21T01:44:59.833Z,1015.8
2016-03-21T01:46:19.086Z,1015.8
2016-03-21T01:46:59.917Z,1015.8
2016-03-21T01:49:17.172Z,1015.82
2016-03-21T01:50:17.207Z,1015.81
2016-03-21T01:51:17.397Z,1015.86
2016-03-21T01:52:17.181Z,1015.8
2016-03-21T01:53:17.231Z,1015.82
2016-03-21T01:54:17.468Z,1015.83
2016-03-21T01:55:17.236Z,1015.77
2016-03-21T01:56:17.474Z,1015.77
2016-03-21T01:57:17.273Z,1015.7
2016-03-21T01:58:30.244Z,1015.77
2016-03-21T01:59:17.966Z,1015.76
2016-03-21T02:00:17.327Z,1015.76
2016-03-21T02:01:17.564Z,1015.79
2016-03-21T02:02:18.005Z,1015.69
2016-03-21T02:03:17.367Z,1015.78
2016-03-21T02:04:17.588Z,1015.7
2016-03-21T02:05:17.434Z,1015.78
2016-03-21T02:06:17.656Z,1015.79
2016-03-21T02:07:17.675Z,1015.76
2016-03-21T02:08:17.473Z,1015.74
2016-03-21T02:09:17.462Z,1015.75
2016-03-21T02:10:17.495Z,1015.76
2016-03-21T02:11:17.481Z,1015.75
2016-03-21T02:12:17.750Z,1015.73
2016-03-21T02:13:17.769Z,1015.75
2016-03-21T02:14:17.787Z,1015.78
2016-03-21T02:15:17.697Z,1015.8
2016-03-21T02:16:23.840Z,1015.78
2016-03-21T02:17:17.608Z,1015.74
2016-03-21T02:18:30.344Z,1015.82
2016-03-21T02:19:17.661Z,1015.84
2016-03-21T02:20:17.866Z,1015.78
2016-03-21T02:21:23.963Z,1015.81
2016-03-21T02:22:17.949Z,1015.8
2016-03-21T02:23:17.702Z,1015.78
2016-03-21T02:24:19.127Z,1015.78
2016-03-21T02:25:17.723Z,1015.81
2016-03-21T02:26:17.726Z,1015.8
2016-03-21T02:27:17.807Z,1015.77
2016-03-21T02:28:17.762Z,1015.77
2016-03-21T02:29:17.827Z,1015.84
2016-03-21T02:30:17.892Z,1015.84
2016-03-21T02:31:18.068Z,1015.83
2016-03-21T02:32:18.070Z,1015.82
2016-03-21T02:33:18.087Z,1015.84
2016-03-21T02:34:18.106Z,1015.85
2016-03-21T02:35:17.890Z,1015.82
2016-03-21T02:36:43.596Z,1015.8
2016-03-21T02:37:17.959Z,1015.83
2016-03-21T02:38:18.165Z,1015.78
2016-03-21T02:39:28.917Z,1015.84
2016-03-21T02:40:29.106Z,1015.8
2016-03-21T02:41:44.751Z,1015.8
2016-03-21T02:42:44.940Z,1015.8
2016-03-21T02:43:44.975Z,1015.79
2016-03-21T02:44:55.945Z,1015.75
2016-03-21T02:46:19.045Z,1015.76
2016-03-21T02:47:22.219Z,1015.76
2016-03-21T02:48:47.926Z,1015.75
2016-03-21T02:49:44.538Z,1015.76
2016-03-21T02:50:44.556Z,1015.74
2016-03-21T02:51:44.636Z,1015.73
2016-03-21T02:52:44.827Z,1015.72
2016-03-21T02:53:45.080Z,1015.77
2016-03-21T02:55:03.835Z,1015.77
2016-03-21T02:56:03.227Z,1015.77
2016-03-21T02:57:03.263Z,1015.78
2016-03-21T02:58:22.452Z,1015.77
2016-03-21T02:59:07.721Z,1015.77
2016-03-21T03:00:33.177Z,1015.79
2016-03-21T03:01:11.976Z,1015.78
2016-03-21T03:04:57.235Z,1015.73
2016-03-21T03:05:57.049Z,1015.69
2016-03-21T03:07:11.836Z,1015.72
2016-03-21T03:08:11.822Z,1015.71
2016-03-21T03:09:21.668Z,1015.72
2016-03-21T03:10:31.922Z,1015.73
2016-03-21T03:11:57.408Z,1015.7
2016-03-21T03:12:43.739Z,1015.69
2016-03-21T03:13:43.726Z,1015.7
2016-03-21T03:14:43.541Z,1015.67
2016-03-21T03:16:11.500Z,1015.69
2016-03-21T03:17:11.533Z,1015.67
2016-03-21T03:18:37.207Z,1015.68
2016-03-21T03:19:21.399Z,1015.68
2016-03-21T03:20:40.588Z,1015.67
2016-03-21T03:21:49.966Z,1015.67
2016-03-21T03:22:34.141Z,1015.69
2016-03-21T03:23:34.174Z,1015.66
2016-03-21T03:26:02.836Z,1015.69
2016-03-21T03:26:43.652Z,1015.67
2016-03-21T03:29:59.628Z,1015.71
2016-03-21T03:30:59.037Z,1015.7
2016-03-21T03:32:11.793Z,1015.72
2016-03-21T03:33:18.265Z,1015.7
2016-03-21T03:34:24.689Z,1015.69
2016-03-21T03:36:40.350Z,1015.73
2016-03-21T03:37:14.681Z,1015.74
2016-03-21T03:39:29.999Z,1015.74
2016-03-21T03:40:29.970Z,1015.76
2016-03-21T03:42:30.164Z,1015.78
2016-03-21T03:43:30.025Z,1015.76
2016-03-21T03:44:30.263Z,1015.79
2016-03-21T03:45:30.266Z,1015.77
2016-03-21T03:46:43.049Z,1015.78
2016-03-21T03:47:49.286Z,1015.83
2016-03-21T03:48:30.133Z,1015.82
2016-03-21T03:49:30.105Z,1015.83
2016-03-21T03:50:30.357Z,1015.8
2016-03-21T03:51:30.390Z,1015.82
2016-03-21T03:52:30.190Z,1015.84
2016-03-21T03:53:30.224Z,1015.85
2016-03-21T03:54:30.242Z,1015.85
2016-03-21T03:55:30.246Z,1015.82
2016-03-21T03:56:30.279Z,1015.78
2016-03-21T03:57:30.391Z,1015.82
2016-03-21T03:58:30.300Z,1015.84
2016-03-21T03:59:30.428Z,1015.85
2016-03-21T04:00:30.368Z,1015.82
2016-03-21T04:01:43.292Z,1015.77
2016-03-21T04:02:56.201Z,1015.72
2016-03-21T04:03:30.611Z,1015.73
2016-03-21T04:04:30.364Z,1015.71
2016-03-21T04:05:43.412Z,1015.67
2016-03-21T04:07:30.403Z,1015.61
2016-03-21T04:08:30.436Z,1015.61
2016-03-21T04:09:43.189Z,1015.6
2016-03-21T04:10:30.457Z,1015.59
2016-03-21T04:11:30.726Z,1015.65
2016-03-21T04:12:30.494Z,1015.63
2016-03-21T04:13:31.122Z,1015.61
2016-03-21T04:14:30.577Z,1015.7
2016-03-21T04:15:31.393Z,1015.65
2016-03-21T04:16:30.552Z,1015.65
2016-03-21T04:17:31.007Z,1015.66
2016-03-21T04:18:30.823Z,1015.7
2016-03-21T04:19:30.607Z,1015.66
2016-03-21T04:20:30.624Z,1015.74
2016-03-21T04:21:30.643Z,1015.72
2016-03-21T04:22:30.662Z,1015.73
2016-03-21T04:23:30.665Z,1015.74
2016-03-21T04:24:30.682Z,1015.78
2016-03-21T04:25:30.716Z,1015.72
2016-03-21T04:26:30.751Z,1015.78
2016-03-21T04:27:30.784Z,1015.74
2016-03-21T04:28:30.740Z,1015.74
2016-03-21T04:29:30.759Z,1015.74
2016-03-21T04:30:30.792Z,1015.73
2016-03-21T04:31:30.857Z,1015.74
2016-03-21T04:33:31.067Z,1015.78
2016-03-21T04:34:30.850Z,1015.77
2016-03-21T04:35:31.056Z,1015.75
2016-03-21T04:36:37.152Z,1015.76
2016-03-21T04:37:30.889Z,1015.79
2016-03-21T04:38:31.158Z,1015.77
2016-03-21T04:39:30.957Z,1015.76
2016-03-21T04:40:30.945Z,1015.79
2016-03-21T04:41:31.384Z,1015.8
2016-03-21T04:42:30.981Z,1015.76
2016-03-21T04:43:50.186Z,1015.72
2016-03-21T04:44:34.439Z,1015.76
2016-03-21T04:45:34.239Z,1015.81
2016-03-21T04:46:34.460Z,1015.76
2016-03-21T04:47:34.494Z,1015.73
2016-03-21T04:48:34.528Z,1015.76
2016-03-21T04:49:34.578Z,1015.79
2016-03-21T04:50:34.346Z,1015.78
2016-03-21T04:51:34.536Z,1015.77
2016-03-21T04:52:34.336Z,1015.8
2016-03-21T04:53:34.370Z,1015.81
2016-03-21T04:54:34.357Z,1015.82
2016-03-21T04:55:34.625Z,1015.84
2016-03-21T04:56:34.659Z,1015.83
2016-03-21T04:57:34.646Z,1015.85
2016-03-21T04:58:34.679Z,1015.87
2016-03-21T04:59:47.182Z,1015.86
2016-03-21T05:00:35.873Z,1015.85
2016-03-21T05:01:34.470Z,1015.86
2016-03-21T05:02:47.472Z,1015.89
2016-03-21T05:03:53.944Z,1015.87
2016-03-21T05:04:53.743Z,1015.89
2016-03-21T05:06:06.984Z,1015.88
2016-03-21T05:08:19.192Z,1015.88
2016-03-21T05:09:19.241Z,1015.95
2016-03-21T05:11:54.606Z,1015.97
2016-03-21T05:12:53.968Z,1015.93
2016-03-21T05:14:06.723Z,1015.98
2016-03-21T05:15:06.725Z,1015.95
2016-03-21T05:15:54.022Z,1015.93
2016-03-21T05:17:19.699Z,1015.96
2016-03-21T05:18:22.828Z,1015.89
2016-03-21T05:20:38.613Z,1015.9
2016-03-21T05:21:38.382Z,1015.88
2016-03-21T05:23:53.638Z,1015.82
2016-03-21T05:24:53.687Z,1015.82
2016-03-21T05:25:54.300Z,1015.77
2016-03-21T05:26:58.349Z,1015.8
2016-03-21T05:29:07.873Z,1015.84
2016-03-21T05:30:07.876Z,1015.82
2016-03-21T05:31:37.159Z,1015.86
2016-03-21T05:32:21.553Z,1015.83
2016-03-21T05:33:40.540Z,1015.85
2016-03-21T05:34:55.793Z,1015.83
2016-03-21T05:35:56.045Z,1015.83
2016-03-21T05:37:08.598Z,1015.83
2016-03-21T05:37:55.832Z,1015.82
2016-03-21T05:39:21.525Z,1015.83
2016-03-21T05:40:06.887Z,1015.88
2016-03-21T05:41:26.139Z,1015.89
2016-03-21T05:43:25.707Z,1015.96
2016-03-21T05:44:25.758Z,1015.96
2016-03-21T05:45:26.369Z,1015.95
2016-03-21T05:46:38.481Z,1016
2016-03-21T05:47:25.765Z,1015.96
2016-03-21T05:48:51.503Z,1015.92
2016-03-21T05:49:35.396Z,1015.97
2016-03-21T05:51:01.069Z,1015.98
2016-03-21T05:51:44.964Z,1016
2016-03-21T05:52:44.982Z,1016.01
2016-03-21T05:53:48.547Z,1016.03
2016-03-21T05:54:48.330Z,1016.01
2016-03-21T05:55:48.583Z,1016.01
2016-03-21T05:57:17.713Z,1016.04
2016-03-21T05:58:27.795Z,1016
2016-03-21T05:59:27.766Z,1016.03
2016-03-21T06:00:40.315Z,1016.02
2016-03-21T06:01:40.287Z,1015.97
2016-03-21T06:02:40.289Z,1016.01
2016-03-21T06:03:27.574Z,1016
2016-03-21T06:04:27.592Z,1016.03
2016-03-21T06:05:27.642Z,1016.01
2016-03-21T06:06:36.909Z,1016.05
2016-03-21T06:09:18.370Z,1016.03
2016-03-21T06:09:52.933Z,1016.05
2016-03-21T06:10:52.499Z,1016.06
2016-03-21T06:12:02.330Z,1016.08
2016-03-21T06:13:02.348Z,1016.03
2016-03-21T06:14:02.413Z,1016.05
2016-03-21T06:15:02.431Z,1016.06
2016-03-21T06:16:02.387Z,1016.07
2016-03-21T06:17:02.421Z,1015.97
2016-03-21T06:18:02.471Z,1016.06
2016-03-21T06:19:09.679Z,1015.95
2016-03-21T06:20:06.900Z,1015.93
2016-03-21T06:21:07.138Z,1015.98
2016-03-21T06:22:19.438Z,1015.96
2016-03-21T06:23:06.752Z,1015.95
2016-03-21T06:24:06.740Z,1015.95
2016-03-21T06:25:07.008Z,1015.96
2016-03-21T06:26:06.777Z,1016.01
2016-03-21T06:27:07.013Z,1016
2016-03-21T06:28:06.796Z,1016.01
2016-03-21T06:29:06.847Z,1015.98
2016-03-21T06:30:06.865Z,1015.96
2016-03-21T06:31:26.055Z,1015.94
2016-03-21T06:32:06.902Z,1015.92
2016-03-21T06:33:06.889Z,1015.98
2016-03-21T06:34:06.892Z,1016.01
2016-03-21T06:35:06.940Z,1016.01
2016-03-21T06:36:07.537Z,1016
2016-03-21T06:37:19.696Z,1016.02
2016-03-21T06:38:07.574Z,1015.97
2016-03-21T06:39:26.201Z,1016.14
2016-03-21T06:40:08.408Z,1015.98
2016-03-21T06:41:07.020Z,1016
2016-03-21T06:42:07.038Z,1015.96
2016-03-21T06:43:07.291Z,1015.94
2016-03-21T06:44:07.325Z,1016.04
2016-03-21T06:45:07.124Z,1016
2016-03-21T06:46:07.111Z,1016.03
2016-03-21T06:47:07.114Z,1016.01
2016-03-21T06:48:07.367Z,1016.02
2016-03-21T06:49:07.213Z,1015.95
2016-03-21T06:50:07.200Z,1016.01
2016-03-21T06:51:07.188Z,1016.03
2016-03-21T06:52:07.222Z,1015.98
2016-03-21T06:53:26.411Z,1016.02
2016-03-21T06:54:07.508Z,1015.97
2016-03-21T06:55:09.245Z,1016
2016-03-21T06:56:07.263Z,1016.03
2016-03-21T06:57:07.281Z,1015.96
2016-03-21T06:58:10.847Z,1015.97
2016-03-21T06:59:10.896Z,1016
2016-03-21T07:00:10.883Z,1016.01
2016-03-21T07:01:10.901Z,1015.97
2016-03-21T07:02:10.904Z,1016.02
2016-03-21T07:03:10.923Z,1016.01
2016-03-21T07:04:10.940Z,1015.98
2016-03-21T07:05:11.210Z,1015.96
2016-03-21T07:06:11.196Z,1015.99
2016-03-21T07:07:11.003Z,1015.99
2016-03-21T07:08:11.022Z,1016
2016-03-21T07:09:11.025Z,1016.02
2016-03-21T07:10:11.059Z,1016.03
2016-03-21T07:11:11.076Z,1015.96
2016-03-21T07:12:11.095Z,1016.01
2016-03-21T07:13:11.348Z,1016.03
2016-03-21T07:14:11.116Z,1016.04
2016-03-21T07:15:11.369Z,1016.05
2016-03-21T07:16:11.152Z,1016.07
2016-03-21T07:17:11.172Z,1016.11
2016-03-21T07:18:23.924Z,1016.03
2016-03-21T07:19:11.255Z,1016.04
2016-03-21T07:20:36.883Z,1016.16
2016-03-21T07:21:11.228Z,1016.1
2016-03-21T07:22:11.247Z,1016.13
2016-03-21T07:23:11.515Z,1016.13
2016-03-21T07:24:11.519Z,1016.17
2016-03-21T07:25:11.739Z,1016.15
2016-03-21T07:26:11.351Z,1016.18
2016-03-21T07:27:11.385Z,1016.15
2016-03-21T07:28:11.357Z,1016.2
2016-03-21T07:29:11.625Z,1016.17
2016-03-21T07:30:11.815Z,1016.2
2016-03-21T07:31:11.647Z,1016.17
2016-03-21T07:32:11.415Z,1016.17
2016-03-21T07:33:11.432Z,1016.24
2016-03-21T07:34:11.654Z,1016.21
2016-03-21T07:35:11.813Z,1016.2
2016-03-21T07:36:11.722Z,1016.25
2016-03-21T07:37:30.787Z,1016.33
2016-03-21T07:38:11.524Z,1016.29
2016-03-21T07:39:37.434Z,1016.35
2016-03-21T07:40:15.904Z,1016.25
2016-03-21T07:41:15.923Z,1016.33
2016-03-21T07:42:15.942Z,1016.31
2016-03-21T07:43:15.975Z,1016.33
2016-03-21T07:44:15.978Z,1016.38
2016-03-21T07:45:16.020Z,1016.35
2016-03-21T07:46:16.228Z,1016.42
2016-03-21T07:47:15.997Z,1016.35
2016-03-21T07:48:16.034Z,1016.39
2016-03-21T07:49:16.069Z,1016.37
2016-03-21T07:50:16.032Z,1016.35
2016-03-21T07:51:16.014Z,1016.38
2016-03-21T07:52:16.026Z,1016.35
2016-03-21T07:53:16.088Z,1016.36
2016-03-21T07:54:16.054Z,1016.36
2016-03-21T07:55:16.146Z,1016.39
2016-03-21T07:56:16.116Z,1016.34
2016-03-21T07:57:16.336Z,1016.36
2016-03-21T07:58:16.336Z,1016.4
2016-03-21T07:59:16.368Z,1016.32
2016-03-21T08:00:16.136Z,1016.36
2016-03-21T08:01:16.185Z,1016.33
2016-03-21T08:02:16.202Z,1016.44
2016-03-21T08:03:28.923Z,1016.4
2016-03-21T08:04:16.222Z,1016.43
2016-03-21T08:05:16.271Z,1016.47
2016-03-21T08:06:29.070Z,1016.47
2016-03-21T08:07:16.261Z,1016.44
2016-03-21T08:08:35.591Z,1016.48
2016-03-21T08:09:16.297Z,1016.45
2016-03-21T08:10:16.534Z,1016.45
2016-03-21T08:11:42.005Z,1016.47
2016-03-21T08:12:25.962Z,1016.45
2016-03-21T08:13:26.214Z,1016.46
2016-03-21T08:14:35.624Z,1016.51
2016-03-21T08:15:33.532Z,1016.53
2016-03-21T08:16:33.565Z,1016.51
2016-03-21T08:17:33.803Z,1016.54
2016-03-21T08:18:33.587Z,1016.57
2016-03-21T08:19:52.840Z,1016.56
2016-03-21T08:20:33.826Z,1016.62
2016-03-21T08:22:53.098Z,1016.68
2016-03-21T08:23:33.709Z,1016.64
2016-03-21T08:24:33.744Z,1016.64
2016-03-21T08:25:40.262Z,1016.6
2016-03-21T08:26:37.625Z,1016.64
2016-03-21T08:27:40.908Z,1016.68
2016-03-21T08:28:37.801Z,1016.71
2016-03-21T08:29:37.725Z,1016.68
2016-03-21T08:30:37.697Z,1016.67
2016-03-21T08:31:37.840Z,1016.68
2016-03-21T08:32:37.750Z,1016.63
2016-03-21T08:33:37.783Z,1016.65
2016-03-21T08:34:37.771Z,1016.65
2016-03-21T08:35:37.789Z,1016.64
2016-03-21T08:36:57.230Z,1016.66
2016-03-21T08:37:37.825Z,1016.66
2016-03-21T08:39:03.484Z,1016.62
2016-03-21T08:39:48.878Z,1016.72
2016-03-21T08:40:48.880Z,1016.61
2016-03-21T08:41:49.102Z,1016.64
2016-03-21T08:42:48.948Z,1016.64
2016-03-21T08:43:48.920Z,1016.63
2016-03-21T08:44:48.954Z,1016.64
2016-03-21T08:45:48.971Z,1016.62
2016-03-21T08:46:48.991Z,1016.64
2016-03-21T08:47:49.009Z,1016.58
2016-03-21T08:48:49.059Z,1016.61
2016-03-21T08:49:49.045Z,1016.59
2016-03-21T08:50:49.064Z,1016.66
2016-03-21T08:51:49.082Z,1016.58
2016-03-21T08:52:49.709Z,1016.59
2016-03-21T08:53:49.118Z,1016.5
2016-03-21T08:54:49.137Z,1016.59
2016-03-21T08:55:49.217Z,1016.58
2016-03-21T08:56:49.440Z,1016.64
2016-03-21T08:57:49.254Z,1016.68
2016-03-21T08:58:49.648Z,1016.66
2016-03-21T08:59:49.291Z,1016.69
2016-03-21T09:00:49.262Z,1016.73
2016-03-21T09:01:49.281Z,1016.77
2016-03-21T09:02:49.314Z,1016.77
2016-03-21T09:03:49.317Z,1016.74
2016-03-21T09:05:15.260Z,1016.72
2016-03-21T09:05:49.338Z,1016.74
2016-03-21T09:06:49.372Z,1016.68
2016-03-21T09:07:49.391Z,1016.7
2016-03-21T09:08:49.394Z,1016.74
2016-03-21T09:09:49.661Z,1016.68
2016-03-21T09:10:49.493Z,1016.66
2016-03-21T09:11:49.714Z,1016.63
2016-03-21T09:12:49.482Z,1016.69
2016-03-21T09:13:49.500Z,1016.74
2016-03-21T09:14:55.807Z,1016.71
2016-03-21T09:15:49.544Z,1016.65
2016-03-21T09:16:49.562Z,1016.61
2016-03-21T09:18:02.314Z,1016.74
2016-03-21T09:18:49.615Z,1016.66
2016-03-21T09:20:08.854Z,1016.68
2016-03-21T09:20:49.682Z,1016.68
2016-03-21T09:22:15.360Z,1016.71
2016-03-21T09:22:53.938Z,1016.64
2016-03-21T09:23:53.971Z,1016.64
2016-03-21T09:25:03.912Z,1016.68
2016-03-21T09:26:03.883Z,1016.68
2016-03-21T09:27:16.873Z,1016.66
2016-03-21T09:28:03.982Z,1016.6
2016-03-21T09:29:03.938Z,1016.68
2016-03-21T09:30:04.597Z,1016.6
2016-03-21T09:31:04.177Z,1016.61
2016-03-21T09:32:04.009Z,1016.55
2016-03-21T09:33:04.246Z,1016.57
2016-03-21T09:34:04.060Z,1016.59
2016-03-21T09:35:04.127Z,1016.72
2016-03-21T09:36:04.113Z,1016.65
2016-03-21T09:37:04.101Z,1016.66
2016-03-21T09:38:04.165Z,1016.58
2016-03-21T09:39:04.121Z,1016.65
2016-03-21T09:40:04.140Z,1016.63
2016-03-21T09:41:17.114Z,1016.59
2016-03-21T09:42:04.192Z,1016.51
2016-03-21T09:43:04.256Z,1016.64
2016-03-21T09:44:04.228Z,1016.51
2016-03-21T09:45:04.247Z,1016.55
2016-03-21T09:46:04.250Z,1016.55
2016-03-21T09:47:04.284Z,1016.51
2016-03-21T09:48:04.302Z,1016.48
2016-03-21T09:49:04.320Z,1016.51
2016-03-21T09:50:04.589Z,1016.52
2016-03-21T09:51:04.356Z,1016.49
2016-03-21T09:52:04.375Z,1016.53
2016-03-21T09:53:23.600Z,1016.43
2016-03-21T09:54:14.633Z,1016.43
2016-03-21T09:55:14.699Z,1016.44
2016-03-21T09:56:14.669Z,1016.49
2016-03-21T09:57:14.704Z,1016.48
2016-03-21T09:58:14.706Z,1016.46
2016-03-21T09:59:14.741Z,1016.44
2016-03-21T10:00:14.758Z,1016.48
2016-03-21T10:01:27.495Z,1016.52
2016-03-21T10:02:14.779Z,1016.51
2016-03-21T10:03:14.798Z,1016.6
2016-03-21T10:04:15.051Z,1016.64
2016-03-21T10:05:14.834Z,1016.63
2016-03-21T10:06:14.869Z,1016.65
2016-03-21T10:07:14.872Z,1016.64
2016-03-21T10:08:14.890Z,1016.61
2016-03-21T10:09:14.909Z,1016.67
2016-03-21T10:10:15.161Z,1016.65
2016-03-21T10:11:15.196Z,1016.71
2016-03-21T10:12:15.026Z,1016.71
2016-03-21T10:13:34.185Z,1016.73
2016-03-21T10:14:18.296Z,1016.65
2016-03-21T10:15:18.299Z,1016.75
2016-03-21T10:16:18.521Z,1016.72
2016-03-21T10:17:18.337Z,1016.77
2016-03-21T10:18:18.354Z,1016.73
2016-03-21T10:19:18.607Z,1016.68
2016-03-21T10:20:18.423Z,1016.69
2016-03-21T10:21:18.426Z,1016.69
2016-03-21T10:22:18.475Z,1016.68
2016-03-21T10:23:18.493Z,1016.73
2016-03-21T10:24:18.512Z,1016.71
2016-03-21T10:25:18.718Z,1016.81
2016-03-21T10:26:18.736Z,1016.75
2016-03-21T10:27:18.582Z,1016.76
2016-03-21T10:28:18.772Z,1016.79
2016-03-21T10:29:18.556Z,1016.79
2016-03-21T10:30:18.574Z,1016.79
2016-03-21T10:31:18.608Z,1016.83
2016-03-21T10:32:18.627Z,1016.8
2016-03-21T10:33:18.644Z,1016.79
2016-03-21T10:34:18.664Z,1016.76
2016-03-21T10:35:18.682Z,1016.73
2016-03-21T10:36:18.950Z,1016.73
2016-03-21T10:37:18.719Z,1016.75
2016-03-21T10:38:18.721Z,1016.77
2016-03-21T10:39:18.755Z,1016.76
2016-03-21T10:40:18.821Z,1016.78
2016-03-21T10:41:19.027Z,1016.74
2016-03-21T10:42:31.544Z,1016.76
2016-03-21T10:43:18.828Z,1016.71
2016-03-21T10:44:44.534Z,1016.67
2016-03-21T10:45:18.896Z,1016.79
2016-03-21T10:46:18.883Z,1016.81
2016-03-21T10:47:19.152Z,1016.73
2016-03-21T10:48:18.935Z,1016.69
2016-03-21T10:49:18.954Z,1016.71
2016-03-21T10:50:31.706Z,1016.63
2016-03-21T10:51:19.054Z,1016.6
2016-03-21T10:52:19.024Z,1016.58
2016-03-21T10:53:19.089Z,1016.61
2016-03-21T10:54:19.279Z,1016.68
2016-03-21T10:55:19.064Z,1016.61
2016-03-21T10:56:20.316Z,1016.63
2016-03-21T10:57:19.101Z,1016.65
2016-03-21T10:58:19.119Z,1016.67
2016-03-21T10:59:19.153Z,1016.64
2016-03-21T11:00:19.170Z,1016.7
2016-03-21T11:01:19.189Z,1016.65
2016-03-21T11:02:19.239Z,1016.69
2016-03-21T11:03:19.288Z,1016.71
2016-03-21T11:04:19.291Z,1016.54
2016-03-21T11:05:19.263Z,1016.7
2016-03-21T11:06:19.280Z,1016.64
2016-03-21T11:07:19.307Z,1016.68
2016-03-21T11:08:19.310Z,1016.64
2016-03-21T11:09:19.391Z,1016.68
2016-03-21T11:10:19.409Z,1016.53
2016-03-21T11:11:19.397Z,1016.6
2016-03-21T11:12:19.633Z,1016.63
2016-03-21T11:13:19.652Z,1016.5
2016-03-21T11:14:19.451Z,1016.57
2016-03-21T11:15:19.454Z,1016.62
2016-03-21T11:16:19.488Z,1016.64
2016-03-21T11:17:19.490Z,1016.65
2016-03-21T11:18:19.961Z,1016.64
2016-03-21T11:19:19.527Z,1016.54
2016-03-21T11:20:19.560Z,1016.54
2016-03-21T11:21:19.579Z,1016.52
2016-03-21T11:22:19.832Z,1016.52
2016-03-21T11:23:19.615Z,1016.54
2016-03-21T11:24:19.634Z,1016.5
2016-03-21T11:25:20.496Z,1016.5
2016-03-21T11:26:19.859Z,1016.51
2016-03-21T11:27:19.689Z,1016.51
2016-03-21T11:28:19.706Z,1016.51
2016-03-21T11:29:19.788Z,1016.5
2016-03-21T11:30:19.759Z,1016.55
2016-03-21T11:31:19.775Z,1016.52
2016-03-21T11:32:19.841Z,1016.5
2016-03-21T11:33:19.813Z,1016.49
2016-03-21T11:34:26.186Z,1016.61
2016-03-21T11:35:45.761Z,1016.49
2016-03-21T11:36:19.874Z,1016.49
2016-03-21T11:37:19.892Z,1016.47
2016-03-21T11:38:19.973Z,1016.5
2016-03-21T11:39:19.928Z,1016.39
2016-03-21T11:40:20.103Z,1016.38
2016-03-21T11:41:19.964Z,1016.46
2016-03-21T11:42:20.046Z,1016.41
2016-03-21T11:43:20.017Z,1016.46
2016-03-21T11:44:20.036Z,1016.46
2016-03-21T11:45:20.053Z,1016.38
2016-03-21T11:46:20.072Z,1016.35
2016-03-21T11:47:20.106Z,1016.3
2016-03-21T11:48:20.124Z,1016.2
2016-03-21T11:49:20.142Z,1016.24
2016-03-21T11:50:20.177Z,1016.24
2016-03-21T11:51:20.179Z,1016.15
2016-03-21T11:52:20.197Z,1016.2
2016-03-21T11:53:20.216Z,1016.1
2016-03-21T11:54:20.296Z,1016.14
2016-03-21T11:55:20.252Z,1016.13
2016-03-21T11:56:33.068Z,1016.06
2016-03-21T11:57:20.367Z,1016.01
2016-03-21T11:58:20.588Z,1016.17
2016-03-21T11:59:20.341Z,1016.05
2016-03-21T12:00:20.407Z,1016.09
2016-03-21T12:01:20.377Z,1016.18
2016-03-21T12:02:20.413Z,1016.11
2016-03-21T12:03:20.430Z,1016.16
2016-03-21T12:04:20.448Z,1016.1
2016-03-21T12:05:20.717Z,1016.12
2016-03-21T12:06:20.516Z,1016.17
2016-03-21T12:07:46.179Z,1016.13
2016-03-21T12:08:20.526Z,1016.05
2016-03-21T12:10:20.578Z,1016.04
2016-03-21T12:11:20.580Z,1016.01
2016-03-21T12:12:33.349Z,1016.01
2016-03-21T12:13:20.617Z,1015.96
2016-03-21T12:14:20.651Z,1015.98
2016-03-21T12:15:36.560Z,1015.99
2016-03-21T12:16:24.172Z,1015.9
2016-03-21T12:17:43.066Z,1015.94
2016-03-21T12:18:23.881Z,1015.94
2016-03-21T12:19:23.899Z,1015.89
2016-03-21T12:20:49.604Z,1015.96
2016-03-21T12:21:23.952Z,1015.84
2016-03-21T12:23:33.503Z,1015.93
2016-03-21T12:25:33.540Z,1015.92
2016-03-21T12:26:33.995Z,1015.93
2016-03-21T12:27:33.812Z,1015.94
2016-03-21T12:28:33.611Z,1015.99
2016-03-21T12:29:59.301Z,1015.92
2016-03-21T12:30:43.835Z,1015.89
2016-03-21T12:31:43.853Z,1015.98
2016-03-21T12:32:44.058Z,1015.97
2016-03-21T12:33:43.842Z,1015.88
2016-03-21T12:34:43.877Z,1015.94
2016-03-21T12:35:43.880Z,1015.94
2016-03-21T12:36:56.648Z,1015.9
2016-03-21T12:37:43.917Z,1015.87
2016-03-21T12:38:43.981Z,1015.88
2016-03-21T12:39:44.172Z,1015.89
2016-03-21T12:40:44.033Z,1015.91
2016-03-21T12:41:44.005Z,1015.87
2016-03-21T12:42:44.039Z,1015.85
2016-03-21T12:43:44.057Z,1015.85